sensor_id;sensor_type;location;lat;lon;timestamp;pressure;altitude;pressure_sealevel;temperature;humidity
42705;BME280;28342;42.594;23.414;2023-01-26T00:00:29;94886.47;;;-0.07;80.92
42705;BME280;28342;42.594;23.414;2023-01-26T00:02:59;94856.63;;;-0.40;81.53
42705;BME280;28342;42.594;23.414;2023-01-26T00:05:46;94897.03;;;-0.14;81.35
42705;BME280;28342;42.594;23.414;2023-01-26T00:08:14;94907.66;;;-0.04;80.86
42705;BME280;28342;42.594;23.414;2023-01-26T00:10:49;94864.28;;;-0.21;81.23
42705;BME280;28342;42.594;23.414;2023-01-26T00:13:30;94926.88;;;0.19;80.69
42705;BME280;28342;42.594;23.414;2023-01-26T00:16:00;94865.88;;;-0.20;80.72
42705;BME280;28342;42.594;23.414;2023-01-26T00:18:29;94875.03;;;-0.18;81.17
42705;BME280;28342;42.594;23.414;2023-01-26T00:21:01;94921.31;;;0.15;80.96
42705;BME280;28342;42.594;23.414;2023-01-26T00:23:33;94896.13;;;-0.19;81.12
42705;BME280;28342;42.594;23.414;2023-01-26T00:26:05;94895.78;;;-0.11;81.54
42705;BME280;28342;42.594;23.414;2023-01-26T00:28:33;94897.75;;;-0.30;81.88
42705;BME280;28342;42.594;23.414;2023-01-26T00:31:07;94879.53;;;-0.53;82.79
42705;BME280;28342;42.594;23.414;2023-01-26T00:33:36;94862.22;;;-0.59;82.80
42705;BME280;28342;42.594;23.414;2023-01-26T00:36:02;94869.19;;;-0.37;82.24
42705;BME280;28342;42.594;23.414;2023-01-26T00:38:27;94870.69;;;-0.41;81.88
42705;BME280;28342;42.594;23.414;2023-01-26T00:40:57;94891.16;;;-0.21;81.69
42705;BME280;28342;42.594;23.414;2023-01-26T00:43:24;94886.84;;;-0.27;80.85
42705;BME280;28342;42.594;23.414;2023-01-26T00:45:49;94847.56;;;-0.49;80.95
42705;BME280;28342;42.594;23.414;2023-01-26T00:48:18;94873.38;;;-0.36;81.28
42705;BME280;28342;42.594;23.414;2023-01-26T00:50:52;94894.53;;;-0.20;80.96
42705;BME280;28342;42.594;23.414;2023-01-26T00:53:19;94887.50;;;-0.20;82.00
42705;BME280;28342;42.594;23.414;2023-01-26T00:55:49;94833.41;;;-0.41;82.16
42705;BME280;28342;42.594;23.414;2023-01-26T00:58:17;94829.13;;;-0.59;81.02
42705;BME280;28342;42.594;23.414;2023-01-26T01:00:43;94824.94;;;-0.60;82.02
42705;BME280;28342;42.594;23.414;2023-01-26T01:03:15;94860.34;;;-0.36;82.20
42705;BME280;28342;42.594;23.414;2023-01-26T01:05:44;94855.47;;;-0.32;81.78
42705;BME280;28342;42.594;23.414;2023-01-26T01:08:10;94846.72;;;-0.26;81.30
42705;BME280;28342;42.594;23.414;2023-01-26T01:10:35;94820.72;;;-0.49;80.73
42705;BME280;28342;42.594;23.414;2023-01-26T01:13:01;94825.44;;;-0.35;81.21
42705;BME280;28342;42.594;23.414;2023-01-26T01:15:28;94830.84;;;-0.24;80.03
42705;BME280;28342;42.594;23.414;2023-01-26T01:17:55;94882.09;;;0.10;80.18
42705;BME280;28342;42.594;23.414;2023-01-26T01:20:25;94850.53;;;-0.17;79.72
42705;BME280;28342;42.594;23.414;2023-01-26T01:22:50;94879.88;;;0.02;79.13
42705;BME280;28342;42.594;23.414;2023-01-26T01:25:16;94843.56;;;-0.28;79.48
42705;BME280;28342;42.594;23.414;2023-01-26T01:27:42;94808.13;;;-0.41;79.02
42705;BME280;28342;42.594;23.414;2023-01-26T01:30:09;94830.78;;;-0.29;79.22
42705;BME280;28342;42.594;23.414;2023-01-26T01:32:35;94825.47;;;-0.46;79.68
42705;BME280;28342;42.594;23.414;2023-01-26T01:35:01;94803.81;;;-0.47;80.42
42705;BME280;28342;42.594;23.414;2023-01-26T01:37:28;94804.34;;;-0.33;78.67
42705;BME280;28342;42.594;23.414;2023-01-26T01:39:57;94800.22;;;-0.46;78.85
42705;BME280;28342;42.594;23.414;2023-01-26T01:42:44;94801.06;;;-0.69;79.35
42705;BME280;28342;42.594;23.414;2023-01-26T01:45:45;94871.88;;;-0.20;80.69
42705;BME280;28342;42.594;23.414;2023-01-26T01:48:39;94858.19;;;-0.39;80.38
42705;BME280;28342;42.594;23.414;2023-01-26T01:51:16;94836.09;;;-0.36;79.78
42705;BME280;28342;42.594;23.414;2023-01-26T01:53:48;94823.00;;;-0.65;80.52
42705;BME280;28342;42.594;23.414;2023-01-26T01:56:34;94850.28;;;-0.44;80.28
42705;BME280;28342;42.594;23.414;2023-01-26T01:59:10;94872.81;;;-0.26;79.85
42705;BME280;28342;42.594;23.414;2023-01-26T02:01:41;94840.53;;;-0.37;80.63
42705;BME280;28342;42.594;23.414;2023-01-26T02:04:13;94840.56;;;-0.60;80.61
42705;BME280;28342;42.594;23.414;2023-01-26T02:06:49;94800.47;;;-0.59;80.10
42705;BME280;28342;42.594;23.414;2023-01-26T02:09:21;94804.44;;;-0.56;79.87
42705;BME280;28342;42.594;23.414;2023-01-26T02:12:29;94851.25;;;-0.21;79.88
42705;BME280;28342;42.594;23.414;2023-01-26T02:15:22;94793.22;;;-0.57;80.39
42705;BME280;28342;42.594;23.414;2023-01-26T02:17:51;94813.59;;;-0.54;79.93
42705;BME280;28342;42.594;23.414;2023-01-26T02:20:39;94788.34;;;-0.65;80.77
42705;BME280;28342;42.594;23.414;2023-01-26T02:23:42;94772.88;;;-0.83;80.69
42705;BME280;28342;42.594;23.414;2023-01-26T02:26:36;94767.75;;;-0.67;80.66
42705;BME280;28342;42.594;23.414;2023-01-26T02:29:09;94763.31;;;-0.66;81.12
42705;BME280;28342;42.594;23.414;2023-01-26T02:31:37;94758.03;;;-0.71;81.88
42705;BME280;28342;42.594;23.414;2023-01-26T02:34:09;94781.56;;;-0.66;80.96
42705;BME280;28342;42.594;23.414;2023-01-26T02:36:36;94756.84;;;-0.64;80.55
42705;BME280;28342;42.594;23.414;2023-01-26T02:41:51;94757.22;;;-0.60;79.56
42705;BME280;28342;42.594;23.414;2023-01-26T02:44:50;94791.81;;;-0.48;80.27
42705;BME280;28342;42.594;23.414;2023-01-26T02:47:37;94801.44;;;-0.37;80.52
42705;BME280;28342;42.594;23.414;2023-01-26T02:50:09;94757.00;;;-0.70;79.43
42705;BME280;28342;42.594;23.414;2023-01-26T02:52:37;94737.88;;;-0.76;80.48
42705;BME280;28342;42.594;23.414;2023-01-26T02:55:05;94756.84;;;-0.64;80.42
42705;BME280;28342;42.594;23.414;2023-01-26T02:57:48;94786.81;;;-0.38;80.66
42705;BME280;28342;42.594;23.414;2023-01-26T03:00:21;94724.50;;;-0.79;79.22
42705;BME280;28342;42.594;23.414;2023-01-26T03:02:58;94755.63;;;-0.61;80.02
42705;BME280;28342;42.594;23.414;2023-01-26T03:05:29;94752.91;;;-0.66;80.25
42705;BME280;28342;42.594;23.414;2023-01-26T03:08:01;94722.75;;;-0.91;80.91
42705;BME280;28342;42.594;23.414;2023-01-26T03:10:37;94725.19;;;-0.72;81.21
42705;BME280;28342;42.594;23.414;2023-01-26T03:13:06;94772.28;;;-0.34;81.21
42705;BME280;28342;42.594;23.414;2023-01-26T03:15:34;94731.34;;;-0.62;80.84
42705;BME280;28342;42.594;23.414;2023-01-26T03:18:21;94742.31;;;-0.48;80.08
42705;BME280;28342;42.594;23.414;2023-01-26T03:21:12;94731.84;;;-0.36;79.97
42705;BME280;28342;42.594;23.414;2023-01-26T03:24:12;94705.66;;;-0.58;79.73
42705;BME280;28342;42.594;23.414;2023-01-26T03:27:01;94763.69;;;-0.34;79.49
42705;BME280;28342;42.594;23.414;2023-01-26T03:29:54;94694.03;;;-0.79;80.26
42705;BME280;28342;42.594;23.414;2023-01-26T03:32:22;94691.97;;;-0.65;79.25
42705;BME280;28342;42.594;23.414;2023-01-26T03:34:53;94719.53;;;-0.41;78.93
42705;BME280;28342;42.594;23.414;2023-01-26T03:37:23;94696.69;;;-0.62;79.69
42705;BME280;28342;42.594;23.414;2023-01-26T03:39:51;94701.25;;;-0.57;80.30
42705;BME280;28342;42.594;23.414;2023-01-26T03:42:49;94740.44;;;-0.36;79.39
42705;BME280;28342;42.594;23.414;2023-01-26T03:45:35;94696.06;;;-0.69;80.11
42705;BME280;28342;42.594;23.414;2023-01-26T03:48:19;94714.22;;;-0.46;80.09
42705;BME280;28342;42.594;23.414;2023-01-26T03:51:10;94721.59;;;-0.54;79.98
42705;BME280;28342;42.594;23.414;2023-01-26T03:54:23;94724.59;;;-0.34;79.78
42705;BME280;28342;42.594;23.414;2023-01-26T03:57:07;94671.59;;;-0.68;79.73
42705;BME280;28342;42.594;23.414;2023-01-26T03:59:36;94708.06;;;-0.68;80.87
42705;BME280;28342;42.594;23.414;2023-01-26T04:02:09;94684.59;;;-0.97;80.99
42705;BME280;28342;42.594;23.414;2023-01-26T04:08:21;94669.19;;;-0.86;81.38
42705;BME280;28342;42.594;23.414;2023-01-26T04:17:41;94687.97;;;-0.56;79.71
42705;BME280;28342;42.594;23.414;2023-01-26T04:20:50;94678.56;;;-0.57;79.51
42705;BME280;28342;42.594;23.414;2023-01-26T04:27:05;94629.09;;;-0.85;79.67
42705;BME280;28342;42.594;23.414;2023-01-26T04:29:43;94682.28;;;-0.53;79.48
42705;BME280;28342;42.594;23.414;2023-01-26T04:32:14;94680.38;;;-0.29;79.56
42705;BME280;28342;42.594;23.414;2023-01-26T04:34:49;94647.94;;;-0.50;78.88
42705;BME280;28342;42.594;23.414;2023-01-26T04:40:44;94622.78;;;-0.89;78.57
42705;BME280;28342;42.594;23.414;2023-01-26T04:47:15;94615.59;;;-0.82;78.60
42705;BME280;28342;42.594;23.414;2023-01-26T04:57:26;94672.63;;;-0.41;78.63
42705;BME280;28342;42.594;23.414;2023-01-26T04:59:58;94614.84;;;-0.66;78.19
42705;BME280;28342;42.594;23.414;2023-01-26T05:02:27;94616.97;;;-0.63;77.79
42705;BME280;28342;42.594;23.414;2023-01-26T05:04:57;94625.91;;;-0.59;78.94
42705;BME280;28342;42.594;23.414;2023-01-26T05:08:02;94643.13;;;-0.58;78.08
42705;BME280;28342;42.594;23.414;2023-01-26T05:13:40;94640.13;;;-0.50;77.71
42705;BME280;28342;42.594;23.414;2023-01-26T05:16:46;94654.13;;;-0.39;77.44
42705;BME280;28342;42.594;23.414;2023-01-26T05:19:24;94610.28;;;-0.59;77.37
42705;BME280;28342;42.594;23.414;2023-01-26T05:22:41;94667.25;;;-0.34;77.23
42705;BME280;28342;42.594;23.414;2023-01-26T05:25:17;94635.78;;;-0.61;77.35
42705;BME280;28342;42.594;23.414;2023-01-26T05:31:50;94613.19;;;-0.72;77.57
42705;BME280;28342;42.594;23.414;2023-01-26T05:34:16;94602.66;;;-0.77;77.51
42705;BME280;28342;42.594;23.414;2023-01-26T05:37:11;94630.56;;;-0.61;78.81
42705;BME280;28342;42.594;23.414;2023-01-26T05:39:51;94616.34;;;-0.70;78.17
42705;BME280;28342;42.594;23.414;2023-01-26T05:42:45;94665.34;;;-0.39;78.23
42705;BME280;28342;42.594;23.414;2023-01-26T05:45:11;94652.41;;;-0.34;78.26
42705;BME280;28342;42.594;23.414;2023-01-26T05:47:37;94662.03;;;-0.34;78.01
42705;BME280;28342;42.594;23.414;2023-01-26T05:50:04;94631.44;;;-0.55;77.96
42705;BME280;28342;42.594;23.414;2023-01-26T05:52:30;94650.25;;;-0.37;78.18
42705;BME280;28342;42.594;23.414;2023-01-26T05:55:00;94634.97;;;-0.62;77.95
42705;BME280;28342;42.594;23.414;2023-01-26T05:57:49;94664.09;;;-0.36;77.92
42705;BME280;28342;42.594;23.414;2023-01-26T06:00:15;94595.81;;;-0.67;78.33
42705;BME280;28342;42.594;23.414;2023-01-26T06:02:44;94635.97;;;-0.34;78.48
42705;BME280;28342;42.594;23.414;2023-01-26T06:05:11;94614.63;;;-0.48;77.49
42705;BME280;28342;42.594;23.414;2023-01-26T06:07:38;94651.31;;;-0.21;78.01
42705;BME280;28342;42.594;23.414;2023-01-26T06:10:04;94627.75;;;-0.43;77.70
42705;BME280;28342;42.594;23.414;2023-01-26T06:12:54;94652.81;;;-0.25;78.12
42705;BME280;28342;42.594;23.414;2023-01-26T06:15:39;94606.44;;;-0.40;78.19
42705;BME280;28342;42.594;23.414;2023-01-26T06:18:05;94601.53;;;-0.36;77.63
42705;BME280;28342;42.594;23.414;2023-01-26T06:20:31;94627.59;;;-0.19;77.25
42705;BME280;28342;42.594;23.414;2023-01-26T06:23:00;94647.06;;;-0.10;77.21
42705;BME280;28342;42.594;23.414;2023-01-26T06:25:28;94620.81;;;-0.20;77.56
42705;BME280;28342;42.594;23.414;2023-01-26T06:27:56;94619.41;;;-0.11;77.83
42705;BME280;28342;42.594;23.414;2023-01-26T06:30:23;94607.41;;;-0.12;77.42
42705;BME280;28342;42.594;23.414;2023-01-26T06:32:50;94605.09;;;-0.09;77.72
42705;BME280;28342;42.594;23.414;2023-01-26T06:35:19;94615.78;;;-0.10;76.09
42705;BME280;28342;42.594;23.414;2023-01-26T06:37:47;94612.63;;;-0.29;76.45
42705;BME280;28342;42.594;23.414;2023-01-26T06:40:15;94614.44;;;-0.29;77.07
42705;BME280;28342;42.594;23.414;2023-01-26T06:42:51;94577.78;;;-0.40;77.13
42705;BME280;28342;42.594;23.414;2023-01-26T06:45:17;94575.94;;;-0.22;77.02
42705;BME280;28342;42.594;23.414;2023-01-26T06:47:49;94592.63;;;-0.23;76.36
42705;BME280;28342;42.594;23.414;2023-01-26T06:50:19;94611.50;;;0.01;76.50
42705;BME280;28342;42.594;23.414;2023-01-26T06:52:50;94612.75;;;-0.02;76.27
42705;BME280;28342;42.594;23.414;2023-01-26T06:55:32;94624.03;;;0.20;76.40
42705;BME280;28342;42.594;23.414;2023-01-26T06:58:00;94613.31;;;0.00;77.54
42705;BME280;28342;42.594;23.414;2023-01-26T07:00:25;94576.97;;;-0.23;76.50
42705;BME280;28342;42.594;23.414;2023-01-26T07:02:51;94587.56;;;-0.13;76.92
42705;BME280;28342;42.594;23.414;2023-01-26T07:05:16;94577.81;;;-0.01;76.72
42705;BME280;28342;42.594;23.414;2023-01-26T07:07:42;94636.09;;;0.43;76.59
42705;BME280;28342;42.594;23.414;2023-01-26T07:10:15;94587.44;;;0.15;76.27
42705;BME280;28342;42.594;23.414;2023-01-26T07:12:44;94592.53;;;0.05;75.85
42705;BME280;28342;42.594;23.414;2023-01-26T07:15:11;94612.75;;;-0.02;77.21
42705;BME280;28342;42.594;23.414;2023-01-26T07:17:43;94593.38;;;0.11;77.52
42705;BME280;28342;42.594;23.414;2023-01-26T07:20:11;94592.91;;;0.14;77.53
42705;BME280;28342;42.594;23.414;2023-01-26T07:22:39;94585.34;;;-0.05;78.13
42705;BME280;28342;42.594;23.414;2023-01-26T07:25:07;94562.97;;;-0.17;77.04
42705;BME280;28342;42.594;23.414;2023-01-26T07:27:33;94566.06;;;-0.20;77.28
42705;BME280;28342;42.594;23.414;2023-01-26T07:29:59;94546.25;;;-0.21;77.18
42705;BME280;28342;42.594;23.414;2023-01-26T07:32:25;94560.63;;;-0.19;76.62
42705;BME280;28342;42.594;23.414;2023-01-26T07:34:52;94565.13;;;-0.14;77.08
42705;BME280;28342;42.594;23.414;2023-01-26T07:37:17;94581.00;;;0.01;76.87
42705;BME280;28342;42.594;23.414;2023-01-26T07:39:47;94569.38;;;-0.08;77.64
42705;BME280;28342;42.594;23.414;2023-01-26T07:42:13;94570.72;;;-0.06;77.70
42705;BME280;28342;42.594;23.414;2023-01-26T07:44:39;94556.03;;;-0.12;77.99
42705;BME280;28342;42.594;23.414;2023-01-26T07:47:05;94570.56;;;0.01;78.32
42705;BME280;28342;42.594;23.414;2023-01-26T07:49:36;94571.19;;;0.08;77.05
42705;BME280;28342;42.594;23.414;2023-01-26T07:52:03;94576.00;;;0.16;77.61
42705;BME280;28342;42.594;23.414;2023-01-26T07:54:32;94561.44;;;0.20;76.44
42705;BME280;28342;42.594;23.414;2023-01-26T07:57:04;94550.38;;;0.13;77.10
42705;BME280;28342;42.594;23.414;2023-01-26T07:59:33;94575.47;;;0.36;75.98
42705;BME280;28342;42.594;23.414;2023-01-26T08:02:00;94548.31;;;0.15;76.32
42705;BME280;28342;42.594;23.414;2023-01-26T08:04:28;94562.72;;;0.18;75.39
42705;BME280;28342;42.594;23.414;2023-01-26T08:06:54;94565.00;;;0.14;77.19
42705;BME280;28342;42.594;23.414;2023-01-26T08:09:21;94532.28;;;-0.15;76.33
42705;BME280;28342;42.594;23.414;2023-01-26T08:11:49;94557.63;;;-0.11;76.49
42705;BME280;28342;42.594;23.414;2023-01-26T08:14:15;94526.69;;;-0.02;75.61
42705;BME280;28342;42.594;23.414;2023-01-26T08:16:40;94550.03;;;0.26;75.99
42705;BME280;28342;42.594;23.414;2023-01-26T08:19:29;94567.53;;;0.48;75.49
42705;BME280;28342;42.594;23.414;2023-01-26T08:21:57;94559.38;;;0.44;76.69
42705;BME280;28342;42.594;23.414;2023-01-26T08:24:34;94533.25;;;0.17;75.46
42705;BME280;28342;42.594;23.414;2023-01-26T08:27:00;94552.34;;;0.45;76.03
42705;BME280;28342;42.594;23.414;2023-01-26T08:29:29;94537.28;;;0.30;75.77
42705;BME280;28342;42.594;23.414;2023-01-26T08:31:55;94558.78;;;0.59;76.04
42705;BME280;28342;42.594;23.414;2023-01-26T08:34:20;94514.53;;;0.25;75.31
42705;BME280;28342;42.594;23.414;2023-01-26T08:36:47;94540.41;;;0.49;75.21
42705;BME280;28342;42.594;23.414;2023-01-26T08:39:12;94544.28;;;0.68;75.04
42705;BME280;28342;42.594;23.414;2023-01-26T08:41:39;94542.94;;;0.44;75.42
42705;BME280;28342;42.594;23.414;2023-01-26T08:44:08;94573.03;;;0.73;74.64
42705;BME280;28342;42.594;23.414;2023-01-26T08:46:34;94546.84;;;0.63;75.66
42705;BME280;28342;42.594;23.414;2023-01-26T08:48:59;94559.44;;;0.71;75.27
42705;BME280;28342;42.594;23.414;2023-01-26T08:51:25;94566.88;;;0.79;76.32
42705;BME280;28342;42.594;23.414;2023-01-26T08:53:50;94524.38;;;0.62;75.04
42705;BME280;28342;42.594;23.414;2023-01-26T08:56:18;94552.16;;;0.73;74.26
42705;BME280;28342;42.594;23.414;2023-01-26T08:58:44;94503.50;;;0.62;73.51
42705;BME280;28342;42.594;23.414;2023-01-26T09:01:12;94535.63;;;0.89;73.68
42705;BME280;28342;42.594;23.414;2023-01-26T09:03:40;94508.78;;;0.67;74.07
42705;BME280;28342;42.594;23.414;2023-01-26T09:06:10;94557.50;;;0.83;74.22
42705;BME280;28342;42.594;23.414;2023-01-26T09:08:36;94547.06;;;0.83;75.10
42705;BME280;28342;42.594;23.414;2023-01-26T09:11:06;94504.03;;;0.64;73.65
42705;BME280;28342;42.594;23.414;2023-01-26T09:13:35;94525.09;;;0.79;73.57
42705;BME280;28342;42.594;23.414;2023-01-26T09:16:04;94530.66;;;0.88;74.33
42705;BME280;28342;42.594;23.414;2023-01-26T09:18:30;94523.97;;;0.75;75.84
42705;BME280;28342;42.594;23.414;2023-01-26T09:21:04;94478.38;;;0.56;74.76
42705;BME280;28342;42.594;23.414;2023-01-26T09:23:34;94488.91;;;0.66;75.19
42705;BME280;28342;42.594;23.414;2023-01-26T09:26:00;94516.50;;;0.84;74.24
42705;BME280;28342;42.594;23.414;2023-01-26T09:28:29;94538.31;;;0.95;74.26
42705;BME280;28342;42.594;23.414;2023-01-26T09:30:54;94519.34;;;0.77;75.13
42705;BME280;28342;42.594;23.414;2023-01-26T09:33:20;94497.41;;;0.78;76.35
42705;BME280;28342;42.594;23.414;2023-01-26T09:35:48;94492.28;;;0.88;75.11
42705;BME280;28342;42.594;23.414;2023-01-26T09:38:15;94463.50;;;0.83;75.57
42705;BME280;28342;42.594;23.414;2023-01-26T09:43:54;94491.38;;;1.05;75.17
42705;BME280;28342;42.594;23.414;2023-01-26T09:51:37;94492.13;;;1.32;75.31
42705;BME280;28342;42.594;23.414;2023-01-26T09:54:25;94468.50;;;1.17;75.93
42705;BME280;28342;42.594;23.414;2023-01-26T09:56:59;94502.59;;;1.32;73.94
42705;BME280;28342;42.594;23.414;2023-01-26T09:59:45;94487.31;;;1.19;74.38
42705;BME280;28342;42.594;23.414;2023-01-26T10:02:32;94490.03;;;1.29;74.04
42705;BME280;28342;42.594;23.414;2023-01-26T10:05:03;94456.38;;;1.06;73.35
42705;BME280;28342;42.594;23.414;2023-01-26T10:07:34;94494.63;;;1.17;73.58
42705;BME280;28342;42.594;23.414;2023-01-26T10:10:01;94497.88;;;1.29;74.05
42705;BME280;28342;42.594;23.414;2023-01-26T10:12:34;94487.94;;;1.31;74.27
42705;BME280;28342;42.594;23.414;2023-01-26T10:15:16;94471.38;;;1.15;74.39
42705;BME280;28342;42.594;23.414;2023-01-26T10:17:44;94438.84;;;1.01;74.39
42705;BME280;28342;42.594;23.414;2023-01-26T10:22:47;94457.13;;;1.33;73.35
42705;BME280;28342;42.594;23.414;2023-01-26T10:25:19;94430.94;;;1.23;73.24
42705;BME280;28342;42.594;23.414;2023-01-26T10:27:48;94434.47;;;1.44;73.23
42705;BME280;28342;42.594;23.414;2023-01-26T10:30:15;94422.75;;;1.52;73.74
42705;BME280;28342;42.594;23.414;2023-01-26T10:32:44;94398.06;;;1.32;73.13
42705;BME280;28342;42.594;23.414;2023-01-26T10:35:19;94407.03;;;1.46;73.08
42705;BME280;28342;42.594;23.414;2023-01-26T10:37:47;94415.41;;;1.48;72.11
42705;BME280;28342;42.594;23.414;2023-01-26T10:40:13;94417.69;;;1.35;72.01
42705;BME280;28342;42.594;23.414;2023-01-26T10:42:39;94396.47;;;1.26;73.28
42705;BME280;28342;42.594;23.414;2023-01-26T10:45:25;94360.94;;;1.25;74.84
42705;BME280;28342;42.594;23.414;2023-01-26T10:48:15;94383.44;;;1.36;73.79
42705;BME280;28342;42.594;23.414;2023-01-26T10:50:42;94381.72;;;1.52;72.76
42705;BME280;28342;42.594;23.414;2023-01-26T10:53:22;94364.75;;;1.55;73.74
42705;BME280;28342;42.594;23.414;2023-01-26T10:56:02;94393.13;;;1.83;73.54
42705;BME280;28342;42.594;23.414;2023-01-26T10:58:39;94389.94;;;1.71;72.13
42705;BME280;28342;42.594;23.414;2023-01-26T11:01:08;94346.81;;;1.26;72.28
42705;BME280;28342;42.594;23.414;2023-01-26T11:03:39;94331.16;;;1.26;72.17
42705;BME280;28342;42.594;23.414;2023-01-26T11:06:10;94350.56;;;1.40;72.66
42705;BME280;28342;42.594;23.414;2023-01-26T11:08:38;94350.81;;;1.39;72.37
42705;BME280;28342;42.594;23.414;2023-01-26T11:11:04;94377.84;;;1.60;72.21
42705;BME280;28342;42.594;23.414;2023-01-26T11:13:35;94345.38;;;1.50;72.12
42705;BME280;28342;42.594;23.414;2023-01-26T11:18:57;94358.50;;;1.61;72.43
42705;BME280;28342;42.594;23.414;2023-01-26T11:21:24;94350.69;;;1.66;72.50
42705;BME280;28342;42.594;23.414;2023-01-26T11:24:03;94339.25;;;1.82;73.12
42705;BME280;28342;42.594;23.414;2023-01-26T11:29:54;94325.09;;;1.78;73.32
42705;BME280;28342;42.594;23.414;2023-01-26T11:32:42;94312.00;;;1.68;73.59
42705;BME280;28342;42.594;23.414;2023-01-26T11:39:02;94259.09;;;1.40;73.18
42705;BME280;28342;42.594;23.414;2023-01-26T11:41:54;94304.69;;;1.70;74.15
42705;BME280;28342;42.594;23.414;2023-01-26T12:00:40;94255.13;;;1.33;74.72
42705;BME280;28342;42.594;23.414;2023-01-26T12:06:06;94236.59;;;1.34;73.51
42705;BME280;28342;42.594;23.414;2023-01-26T12:15:00;94281.66;;;1.62;74.86
42705;BME280;28342;42.594;23.414;2023-01-26T12:20:17;94258.13;;;1.57;75.79
42705;BME280;28342;42.594;23.414;2023-01-26T12:22:59;94214.09;;;1.28;76.23
42705;BME280;28342;42.594;23.414;2023-01-26T12:25:33;94242.94;;;1.54;75.34
42705;BME280;28342;42.594;23.414;2023-01-26T12:28:31;94254.47;;;1.68;76.79
42705;BME280;28342;42.594;23.414;2023-01-26T12:31:06;94206.25;;;1.28;76.80
42705;BME280;28342;42.594;23.414;2023-01-26T12:33:38;94231.88;;;1.36;77.32
42705;BME280;28342;42.594;23.414;2023-01-26T12:41:59;94239.81;;;1.62;77.38
42705;BME280;28342;42.594;23.414;2023-01-26T12:44:45;94191.06;;;1.10;77.43
42705;BME280;28342;42.594;23.414;2023-01-26T12:47:23;94202.31;;;1.20;78.01
42705;BME280;28342;42.594;23.414;2023-01-26T12:53:06;94186.38;;;1.17;77.12
42705;BME280;28342;42.594;23.414;2023-01-26T12:55:49;94199.47;;;1.32;77.15
42705;BME280;28342;42.594;23.414;2023-01-26T13:03:34;94179.84;;;1.19;78.70
42705;BME280;28342;42.594;23.414;2023-01-26T13:12:03;94209.88;;;1.22;78.93
42705;BME280;28342;42.594;23.414;2023-01-26T13:14:30;94227.75;;;1.40;79.07
42705;BME280;28342;42.594;23.414;2023-01-26T13:17:03;94167.50;;;1.05;79.94
42705;BME280;28342;42.594;23.414;2023-01-26T13:27:45;94211.59;;;1.54;78.77
42705;BME280;28342;42.594;23.414;2023-01-26T13:33:10;94178.06;;;1.35;78.76
42705;BME280;28342;42.594;23.414;2023-01-26T13:35:43;94197.72;;;1.58;78.01
42705;BME280;28342;42.594;23.414;2023-01-26T13:38:17;94191.69;;;1.42;78.38
42705;BME280;28342;42.594;23.414;2023-01-26T13:40:53;94170.50;;;1.39;78.65
42705;BME280;28342;42.594;23.414;2023-01-26T13:43:31;94134.63;;;1.14;78.72
42705;BME280;28342;42.594;23.414;2023-01-26T13:48:42;94187.03;;;1.70;78.18
42705;BME280;28342;42.594;23.414;2023-01-26T13:51:28;94160.84;;;1.44;78.78
42705;BME280;28342;42.594;23.414;2023-01-26T13:54:03;94187.53;;;1.62;78.92
42705;BME280;28342;42.594;23.414;2023-01-26T13:57:03;94158.75;;;1.46;78.54
42705;BME280;28342;42.594;23.414;2023-01-26T13:59:33;94169.75;;;1.54;78.19
42705;BME280;28342;42.594;23.414;2023-01-26T14:02:28;94119.25;;;1.28;77.59
42705;BME280;28342;42.594;23.414;2023-01-26T14:05:03;94134.72;;;1.44;77.32
42705;BME280;28342;42.594;23.414;2023-01-26T14:07:39;94150.97;;;1.72;77.49
42705;BME280;28342;42.594;23.414;2023-01-26T14:10:17;94114.59;;;1.55;77.45
42705;BME280;28342;42.594;23.414;2023-01-26T14:12:52;94115.91;;;1.58;76.67
42705;BME280;28342;42.594;23.414;2023-01-26T14:16:00;94124.28;;;1.65;76.54
42705;BME280;28342;42.594;23.414;2023-01-26T14:18:28;94095.00;;;1.42;76.55
42705;BME280;28342;42.594;23.414;2023-01-26T14:21:16;94082.44;;;1.44;76.81
42705;BME280;28342;42.594;23.414;2023-01-26T14:23:56;94111.75;;;1.72;76.54
42705;BME280;28342;42.594;23.414;2023-01-26T14:26:46;94102.34;;;1.71;76.17
42705;BME280;28342;42.594;23.414;2023-01-26T14:29:21;94090.03;;;1.66;75.79
42705;BME280;28342;42.594;23.414;2023-01-26T14:31:47;94091.59;;;1.72;74.99
42705;BME280;28342;42.594;23.414;2023-01-26T14:34:19;94127.97;;;1.99;75.31
42705;BME280;28342;42.594;23.414;2023-01-26T14:37:21;94141.56;;;2.01;75.44
42705;BME280;28342;42.594;23.414;2023-01-26T14:39:47;94075.66;;;1.64;75.60
42705;BME280;28342;42.594;23.414;2023-01-26T14:42:21;94096.31;;;1.86;75.70
42705;BME280;28342;42.594;23.414;2023-01-26T14:44:50;94078.00;;;1.86;75.53
42705;BME280;28342;42.594;23.414;2023-01-26T14:47:23;94105.44;;;1.98;75.35
42705;BME280;28342;42.594;23.414;2023-01-26T14:50:05;94130.31;;;2.06;75.37
42705;BME280;28342;42.594;23.414;2023-01-26T14:52:34;94098.13;;;1.95;75.38
42705;BME280;28342;42.594;23.414;2023-01-26T14:55:20;94072.78;;;1.86;75.68
42705;BME280;28342;42.594;23.414;2023-01-26T14:58:18;94086.63;;;1.81;75.09
42705;BME280;28342;42.594;23.414;2023-01-26T15:00:54;94101.00;;;1.68;75.78
42705;BME280;28342;42.594;23.414;2023-01-26T15:03:42;94100.25;;;1.73;75.96
42705;BME280;28342;42.594;23.414;2023-01-26T15:08:38;94106.00;;;1.70;75.91
42705;BME280;28342;42.594;23.414;2023-01-26T15:11:05;94076.69;;;1.53;76.20
42705;BME280;28342;42.594;23.414;2023-01-26T15:13:54;94088.72;;;1.59;76.22
42705;BME280;28342;42.594;23.414;2023-01-26T15:16:25;94082.47;;;1.70;76.26
42705;BME280;28342;42.594;23.414;2023-01-26T15:18:58;94075.66;;;1.64;76.26
42705;BME280;28342;42.594;23.414;2023-01-26T15:21:32;94073.28;;;1.67;76.37
42705;BME280;28342;42.594;23.414;2023-01-26T15:24:02;94055.00;;;1.47;76.08
42705;BME280;28342;42.594;23.414;2023-01-26T15:26:33;94102.84;;;1.78;76.17
42705;BME280;28342;42.594;23.414;2023-01-26T15:31:58;94090.53;;;1.84;76.56
42705;BME280;28342;42.594;23.414;2023-01-26T15:34:47;94100.22;;;1.93;76.67
42705;BME280;28342;42.594;23.414;2023-01-26T15:37:31;94070.69;;;1.88;76.19